Terminal Aerodrome Forecast
Issued by NWS

Home | Current Version | Previous Version | Text Only | Print | Product List | Glossary On
Versions: 1 2 3 4 5 6 7 8 9 10 11 12 13 14 15 16 17
000
FTUS45 KRIW 302321
TAFCOD
TAF
KCOD 302321Z 0100/0124 VRB09G17KT P6SM VCSH SCT060 BKN080
     FM010300 VRB05KT P6SM BKN100
     FM010800 VRB06KT P6SM FEW080
     FM012100 06007KT P6SM SCT080
      AMD LTD TO CLD VIS AND WIND=

USA.gov is the U.S. government's official web portal to all federal, state and local government web resources and services.